Time;durP1;ratioP1;P1;durP2;ratioP2;P2;SDS_P1;SDS_P2;PMS_P1;PMS_P2;Temp;Humidity;BMP_temperature;BMP_pressure;BME280_temperature;BME280_humidity;BME280_pressure;Samples;Min_cycle;Max_cycle;Signal;HPM_P1;HPM_P2
2022/04/28 00:00:49;;;;;;;8.80;3.78;;;8.20;98.70;;;;;;5100876;28;20061;-88
2022/04/28 00:03:15;;;;;;;10.45;4.22;;;8.20;98.80;;;;;;5118749;28;20020;-88
2022/04/28 00:05:41;;;;;;;8.95;3.72;;;8.20;99.00;;;;;;5101091;28;20106;-88
2022/04/28 00:08:08;;;;;;;8.57;4.28;;;8.10;99.10;;;;;;5119701;28;20054;-88
2022/04/28 00:10:37;;;;;;;7.68;3.58;;;8.10;99.10;;;;;;5119245;28;20482;-88
2022/04/28 00:13:07;;;;;;;8.02;3.80;;;8.10;99.30;;;;;;5101794;28;20028;-90
2022/04/28 00:15:33;;;;;;;9.48;3.80;;;8.10;99.40;;;;;;5101587;28;20043;-90
2022/04/28 00:17:58;;;;;;;9.45;4.30;;;8.00;99.50;;;;;;5101426;28;20064;-87
2022/04/28 00:20:24;;;;;;;6.57;3.53;;;8.00;99.60;;;;;;5122064;28;20027;-88
2022/04/28 00:22:50;;;;;;;8.38;3.33;;;8.00;99.70;;;;;;5104755;28;20016;-88
2022/04/28 00:25:15;;;;;;;6.90;3.50;;;8.00;99.80;;;;;;5103913;28;20031;-86
2022/04/28 00:27:41;;;;;;;7.53;4.32;;;7.90;99.90;;;;;;5108636;28;20031;-86
2022/04/28 00:30:08;;;;;;;7.45;3.60;;;7.90;99.90;;;;;;5110235;28;20030;-87
2022/04/28 00:32:35;;;;;;;7.35;3.40;;;7.90;99.90;;;;;;5127658;28;20027;-87
2022/04/28 00:35:01;;;;;;;4.82;3.17;;;7.80;99.90;;;;;;5125859;28;20097;-86
2022/04/28 00:37:26;;;;;;;7.28;3.17;;;7.80;99.90;;;;;;5107936;28;20492;-87
2022/04/28 00:39:53;;;;;;;6.82;3.10;;;7.80;99.90;;;;;;5107104;28;20091;-87
2022/04/28 00:42:19;;;;;;;7.35;3.35;;;7.80;99.90;;;;;;5104233;28;20482;-87
2022/04/28 00:44:46;;;;;;;8.80;4.10;;;7.80;99.90;;;;;;5103055;28;20019;-87
2022/04/28 00:47:12;;;;;;;7.78;4.20;;;7.80;99.90;;;;;;5102813;28;20080;-88
2022/04/28 00:52:23;;;;;;;6.10;3.25;;;7.70;99.90;;;;;;5118725;28;20115;-87
2022/04/28 00:54:51;;;;;;;6.95;2.80;;;7.70;99.90;;;;;;5117530;28;20491;-88
2022/04/28 00:57:18;;;;;;;6.72;2.80;;;7.60;99.90;;;;;;5099199;28;20462;-88
2022/04/28 00:59:46;;;;;;;6.55;3.05;;;7.70;99.90;;;;;;5099517;28;20457;-86
2022/04/28 01:02:12;;;;;;;5.25;3.10;;;7.60;99.90;;;;;;5098769;28;20031;-88
2022/04/28 01:04:38;;;;;;;5.88;3.22;;;7.70;99.90;;;;;;5099135;28;20051;-87
2022/04/28 01:07:05;;;;;;;7.60;3.20;;;7.60;99.90;;;;;;5098860;28;20031;-87
2022/04/28 01:09:36;;;;;;;9.32;3.65;;;7.60;99.90;;;;;;5116983;28;20040;-87
2022/04/28 01:12:24;;;;;;;7.45;3.63;;;7.50;99.90;;;;;;5116151;28;20019;-87
2022/04/28 01:14:50;;;;;;;5.18;3.33;;;7.50;99.90;;;;;;5099071;28;20103;-87
2022/04/28 01:17:16;;;;;;;7.75;3.83;;;7.50;99.90;;;;;;5098511;28;20051;-88
2022/04/28 01:19:42;;;;;;;9.07;4.20;;;7.40;99.90;;;;;;5098917;28;20058;-87
2022/04/28 01:22:08;;;;;;;6.50;3.15;;;7.40;99.90;;;;;;5098811;28;20035;-86
2022/04/28 01:24:36;;;;;;;7.85;3.42;;;7.40;99.90;;;;;;5098832;28;20031;-86
2022/04/28 01:27:05;;;;;;;7.13;3.90;;;7.40;99.90;;;;;;5098407;28;20043;-88
2022/04/28 01:29:34;;;;;;;7.78;3.85;;;7.40;99.90;;;;;;5098476;28;20106;-87
2022/04/28 01:32:00;;;;;;;7.57;3.55;;;7.40;99.90;;;;;;5098963;28;20112;-87
2022/04/28 01:34:26;;;;;;;9.25;3.88;;;7.40;99.90;;;;;;5099340;28;20070;-87
2022/04/28 01:36:52;;;;;;;9.77;3.65;;;7.40;99.90;;;;;;5098492;28;20480;-86
2022/04/28 01:39:18;;;;;;;6.55;3.47;;;7.40;99.90;;;;;;5098826;28;20023;-88
2022/04/28 01:41:43;;;;;;;7.78;3.90;;;7.40;99.90;;;;;;5098908;28;20043;-88
2022/04/28 01:44:09;;;;;;;9.45;3.80;;;7.30;99.90;;;;;;5099258;28;20023;-87
2022/04/28 01:46:35;;;;;;;9.38;4.32;;;7.40;99.90;;;;;;5099166;28;20092;-86
2022/04/28 01:49:00;;;;;;;7.97;3.45;;;7.30;99.90;;;;;;5100494;28;20435;-88
2022/04/28 01:56:54;;;;;;;7.30;3.75;;;7.30;99.90;;;;;;5116743;28;20038;-87
2022/04/28 01:59:20;;;;;;;7.18;3.15;;;7.20;99.90;;;;;;5098231;28;20019;-88
2022/04/28 02:01:46;;;;;;;7.43;3.97;;;7.20;99.90;;;;;;5098232;28;20035;-87
2022/04/28 02:04:11;;;;;;;7.25;3.70;;;7.20;99.90;;;;;;5116151;28;20034;-88
2022/04/28 02:06:37;;;;;;;10.52;3.90;;;7.20;99.90;;;;;;5098138;28;20370;-88
2022/04/28 02:09:03;;;;;;;7.40;4.05;;;7.20;99.90;;;;;;5097342;28;20505;-89
2022/04/28 02:11:29;;;;;;;6.93;3.20;;;7.10;99.90;;;;;;5097750;28;20020;-88
2022/04/28 02:13:55;;;;;;;8.30;3.80;;;7.10;99.90;;;;;;5097752;28;20031;-86
2022/04/28 02:16:20;;;;;;;7.03;3.35;;;7.10;99.90;;;;;;5097397;28;20110;-87
2022/04/28 02:18:46;;;;;;;5.85;3.30;;;7.10;99.90;;;;;;5097797;28;20053;-89
2022/04/28 02:21:11;;;;;;;7.10;3.50;;;7.10;99.90;;;;;;5115600;28;20080;-88
2022/04/28 02:23:37;;;;;;;8.43;3.53;;;7.00;99.90;;;;;;5115787;28;20465;-87
2022/04/28 02:26:06;;;;;;;5.68;3.67;;;7.00;99.90;;;;;;5115434;28;20027;-89
2022/04/28 02:28:31;;;;;;;7.38;3.72;;;7.00;99.90;;;;;;5097258;28;20088;-88
2022/04/28 02:30:57;;;;;;;8.50;4.03;;;7.00;99.90;;;;;;5097092;28;20020;-87
2022/04/28 02:33:23;;;;;;;7.93;3.90;;;6.90;99.90;;;;;;5097565;28;20023;-87
2022/04/28 02:35:48;;;;;;;7.97;3.90;;;6.80;99.90;;;;;;5097676;28;20462;-87
2022/04/28 02:38:14;;;;;;;8.82;4.00;;;6.80;99.90;;;;;;5097681;28;20055;-88
2022/04/28 02:40:40;;;;;;;5.80;3.80;;;6.70;99.90;;;;;;5115622;28;20031;-88
2022/04/28 02:43:05;;;;;;;9.75;4.13;;;6.80;99.90;;;;;;5097891;28;20031;-87
2022/04/28 02:45:31;;;;;;;8.50;4.47;;;6.70;99.90;;;;;;5098106;28;20024;-88
2022/04/28 02:47:57;;;;;;;8.93;5.28;;;6.70;99.90;;;;;;5097689;28;20030;-89
2022/04/28 02:50:22;;;;;;;7.82;4.50;;;6.70;99.90;;;;;;5098588;28;20016;-88
2022/04/28 02:52:51;;;;;;;9.55;4.70;;;6.70;99.90;;;;;;5096975;28;20020;-87
2022/04/28 02:55:17;;;;;;;6.30;4.03;;;6.70;99.90;;;;;;5115024;28;20019;-87
2022/04/28 02:57:43;;;;;;;8.60;4.70;;;6.70;99.90;;;;;;5115308;28;20020;-87
2022/04/28 03:00:09;;;;;;;7.53;4.47;;;6.60;99.90;;;;;;5096544;28;20098;-89
2022/04/28 03:02:35;;;;;;;7.55;4.07;;;6.60;99.90;;;;;;5114772;28;20043;-91
2022/04/28 03:05:04;;;;;;;7.60;3.75;;;6.60;99.90;;;;;;5096392;28;20423;-88
2022/04/28 03:13:22;;;;;;;7.68;4.47;;;6.60;99.90;;;;;;5052006;28;20021;-87
2022/04/28 03:15:49;;;;;;;8.65;4.53;;;6.60;99.90;;;;;;5052114;28;20171;-88
2022/04/28 03:18:16;;;;;;;10.60;5.35;;;6.60;99.90;;;;;;5075651;28;20035;-86
2022/04/28 03:20:42;;;;;;;8.77;4.13;;;6.60;99.90;;;;;;5096473;28;20477;-87
2022/04/28 03:23:11;;;;;;;7.63;3.80;;;6.50;99.90;;;;;;5097019;28;20028;-87
2022/04/28 03:25:37;;;;;;;7.70;4.13;;;6.60;99.90;;;;;;5096921;28;20111;-86
2022/04/28 03:28:07;;;;;;;6.70;3.55;;;6.50;99.90;;;;;;5096841;28;20487;-86
2022/04/28 03:30:33;;;;;;;8.52;4.00;;;6.50;99.90;;;;;;5096359;28;20026;-88
2022/04/28 03:33:00;;;;;;;10.15;4.35;;;6.50;99.90;;;;;;5096871;28;20024;-86
2022/04/28 03:35:26;;;;;;;6.72;3.90;;;6.50;99.90;;;;;;5096619;28;20035;-89
2022/04/28 03:37:51;;;;;;;8.90;4.53;;;6.50;99.90;;;;;;5097056;28;20023;-87
2022/04/28 03:40:17;;;;;;;11.48;4.45;;;6.50;99.90;;;;;;5096732;28;20055;-88
2022/04/28 03:42:46;;;;;;;8.63;4.00;;;6.50;99.90;;;;;;5096412;28;20034;-88
2022/04/28 03:45:12;;;;;;;7.85;4.40;;;6.50;99.90;;;;;;5096726;28;20044;-88
2022/04/28 03:47:38;;;;;;;7.07;3.55;;;6.50;99.90;;;;;;5096842;28;20019;-89
2022/04/28 03:50:07;;;;;;;7.78;3.88;;;6.50;99.90;;;;;;5096888;28;20020;-87
2022/04/28 03:52:33;;;;;;;6.97;4.43;;;6.50;99.90;;;;;;5096799;28;20019;-88
2022/04/28 03:54:59;;;;;;;8.40;3.38;;;6.40;99.90;;;;;;5096676;28;20204;-88
2022/04/28 03:57:24;;;;;;;9.35;4.53;;;6.40;99.90;;;;;;5115540;28;20023;-88
2022/04/28 03:59:50;;;;;;;9.40;4.22;;;6.40;99.90;;;;;;5096790;28;20020;-87
2022/04/28 04:02:16;;;;;;;7.50;4.10;;;6.40;99.90;;;;;;5096642;28;20035;-88
2022/04/28 04:04:41;;;;;;;7.05;4.10;;;6.40;99.90;;;;;;5096619;28;20024;-87
2022/04/28 04:07:08;;;;;;;8.30;3.80;;;6.50;99.90;;;;;;5096518;28;20110;-87
2022/04/28 04:09:33;;;;;;;6.25;3.78;;;6.40;99.90;;;;;;5092904;28;20044;-87
2022/04/28 04:11:59;;;;;;;6.72;3.30;;;6.40;99.90;;;;;;5093709;28;20016;-90
2022/04/28 04:14:24;;;;;;;7.80;3.75;;;6.40;99.90;;;;;;5093116;28;20012;-89
2022/04/28 04:16:50;;;;;;;6.45;4.00;;;6.40;99.90;;;;;;5092593;28;20474;-89
2022/04/28 04:19:16;;;;;;;7.47;4.25;;;6.40;99.90;;;;;;5092576;28;20031;-88
2022/04/28 04:21:41;;;;;;;6.57;3.50;;;6.40;99.90;;;;;;5092787;28;20032;-87
2022/04/28 04:24:07;;;;;;;7.78;3.95;;;6.40;99.90;;;;;;5093199;28;20030;-87
2022/04/28 04:26:33;;;;;;;5.85;3.20;;;6.40;99.90;;;;;;5096306;28;20016;-86
2022/04/28 04:28:59;;;;;;;8.85;3.38;;;6.40;99.90;;;;;;5094608;28;20444;-86
2022/04/28 04:34:09;;;;;;;8.93;3.35;;;6.40;99.90;;;;;;5099015;28;20426;-86
2022/04/28 04:36:37;;;;;;;5.15;3.33;;;6.30;99.90;;;;;;5096263;28;20016;-87
2022/04/28 04:39:05;;;;;;;9.15;3.40;;;6.40;99.90;;;;;;5096455;28;20039;-88
2022/04/28 04:41:31;;;;;;;8.23;3.67;;;6.30;99.90;;;;;;5094327;28;20032;-86
2022/04/28 04:43:57;;;;;;;7.20;3.97;;;6.30;99.90;;;;;;5096436;28;20385;-88
2022/04/28 04:46:22;;;;;;;8.93;4.13;;;6.30;99.90;;;;;;5098971;28;20606;-87
2022/04/28 04:48:48;;;;;;;10.93;5.00;;;6.40;99.90;;;;;;5100535;28;20024;-85
2022/04/28 04:51:14;;;;;;;8.50;4.57;;;6.30;99.90;;;;;;5101912;28;20028;-87
2022/04/28 04:53:40;;;;;;;10.90;4.63;;;6.40;99.90;;;;;;5096860;28;20027;-88
2022/04/28 04:56:05;;;;;;;8.98;4.50;;;6.40;99.90;;;;;;5093802;28;20028;-87
2022/04/28 04:58:31;;;;;;;7.85;4.32;;;6.40;99.90;;;;;;5092955;28;20051;-89
2022/04/28 05:00:57;;;;;;;9.90;5.40;;;6.40;99.90;;;;;;5093525;28;20028;-87
2022/04/28 05:03:23;;;;;;;10.93;5.20;;;6.40;99.90;;;;;;5094682;28;20020;-87
2022/04/28 05:05:48;;;;;;;7.55;4.25;;;6.40;99.90;;;;;;5095047;28;20026;-86
2022/04/28 05:08:14;;;;;;;8.80;4.10;;;6.40;99.90;;;;;;5095857;28;20024;-85
2022/04/28 05:10:40;;;;;;;12.07;4.95;;;6.50;99.90;;;;;;5116343;28;20071;-88
2022/04/28 05:13:08;;;;;;;7.43;4.43;;;6.50;99.90;;;;;;5099391;28;20031;-86
2022/04/28 05:15:33;;;;;;;8.63;3.75;;;6.50;99.90;;;;;;5098030;28;20024;-85
2022/04/28 05:17:59;;;;;;;6.95;3.58;;;6.60;99.90;;;;;;5098195;28;20061;-88
2022/04/28 05:20:25;;;;;;;8.10;3.75;;;6.60;99.90;;;;;;5098867;28;20071;-87
2022/04/28 05:22:50;;;;;;;8.85;3.90;;;6.60;99.90;;;;;;5098740;28;20392;-87
2022/04/28 05:25:16;;;;;;;6.55;3.53;;;6.70;99.90;;;;;;5098411;28;20027;-86
2022/04/28 05:27:41;;;;;;;9.27;3.92;;;6.70;99.90;;;;;;5098720;28;20060;-86
2022/04/28 05:30:08;;;;;;;10.73;3.95;;;6.70;99.90;;;;;;5098883;28;20028;-87
2022/04/28 05:32:37;;;;;;;8.73;3.80;;;6.80;99.90;;;;;;5098571;28;20023;-86
2022/04/28 05:35:05;;;;;;;6.88;3.30;;;6.80;99.90;;;;;;5098746;28;20094;-87
2022/04/28 05:37:31;;;;;;;6.57;3.13;;;6.90;99.90;;;;;;5098257;28;20319;-87
2022/04/28 05:39:57;;;;;;;7.65;3.10;;;6.90;99.90;;;;;;5116959;28;20034;-86
2022/04/28 05:45:41;;;;;;;7.70;3.65;;;7.00;99.90;;;;;;5098317;28;20042;-86
2022/04/28 05:47:54;;;;;;;10.98;4.50;;;7.10;99.90;;;;;;5116790;28;20034;-86
2022/04/28 05:50:19;;;;;;;9.10;4.57;;;7.10;99.90;;;;;;5098809;28;20019;-86
2022/04/28 05:52:45;;;;;;;8.18;3.92;;;7.20;99.90;;;;;;5098243;28;20111;-87
2022/04/28 05:55:10;;;;;;;12.38;5.10;;;7.30;99.90;;;;;;5115910;28;20058;-87
2022/04/28 05:57:36;;;;;;;7.07;4.10;;;7.30;99.90;;;;;;5097515;28;20457;-86
2022/04/28 06:00:02;;;;;;;8.75;3.67;;;7.30;99.90;;;;;;5116342;28;20069;-85
2022/04/28 06:02:28;;;;;;;6.57;3.30;;;7.50;99.90;;;;;;5098048;28;20084;-87
2022/04/28 06:04:53;;;;;;;8.05;3.90;;;7.50;99.90;;;;;;5098117;28;20016;-88
2022/04/28 06:07:19;;;;;;;9.40;3.90;;;7.60;99.90;;;;;;5115999;28;20076;-87
2022/04/28 06:09:46;;;;;;;8.25;3.65;;;7.60;99.90;;;;;;5097579;28;20039;-86
2022/04/28 06:12:11;;;;;;;6.55;3.00;;;7.70;99.90;;;;;;5097653;28;20137;-86
2022/04/28 06:14:38;;;;;;;6.78;3.55;;;7.80;99.90;;;;;;5098746;28;20040;-86
2022/04/28 06:17:06;;;;;;;8.05;3.50;;;7.80;99.90;;;;;;5115752;28;20098;-85
2022/04/28 06:19:32;;;;;;;8.48;3.60;;;7.90;99.90;;;;;;5097652;28;20076;-86
2022/04/28 06:21:57;;;;;;;6.68;2.80;;;8.00;99.90;;;;;;5115340;28;20035;-86
2022/04/28 06:24:24;;;;;;;7.75;2.70;;;8.00;99.90;;;;;;5097056;28;20020;-87
2022/04/28 06:26:50;;;;;;;8.45;3.28;;;8.10;99.90;;;;;;5097276;28;20127;-86
2022/04/28 06:29:16;;;;;;;7.22;2.85;;;8.10;99.90;;;;;;5115341;28;20051;-87
2022/04/28 06:31:41;;;;;;;7.85;3.10;;;8.20;99.90;;;;;;5097114;28;20027;-87
2022/04/28 06:34:09;;;;;;;9.73;3.67;;;8.30;99.90;;;;;;5097591;28;20035;-86
2022/04/28 06:36:35;;;;;;;7.47;3.08;;;8.30;99.90;;;;;;5097282;28;20030;-87
2022/04/28 06:39:02;;;;;;;7.10;3.38;;;8.40;99.90;;;;;;5081788;28;20474;-88
2022/04/28 06:41:28;;;;;;;8.05;3.08;;;8.50;99.90;;;;;;5076649;28;20024;-87
2022/04/28 06:43:55;;;;;;;10.55;3.33;;;8.50;99.90;;;;;;5095156;28;20121;-86
2022/04/28 06:46:21;;;;;;;8.68;3.08;;;8.50;99.90;;;;;;5076704;28;20165;-86
2022/04/28 06:48:47;;;;;;;8.40;3.28;;;8.50;99.90;;;;;;5076802;28;20078;-87
2022/04/28 06:51:13;;;;;;;10.45;3.45;;;8.60;99.90;;;;;;5094169;28;20027;-87
2022/04/28 06:53:42;;;;;;;7.38;2.95;;;8.60;99.90;;;;;;5096697;28;20051;-86
2022/04/28 06:56:08;;;;;;;7.82;3.28;;;8.60;99.90;;;;;;5096817;28;20091;-87
2022/04/28 06:58:34;;;;;;;10.88;3.45;;;8.60;99.90;;;;;;5096524;28;20119;-87
2022/04/28 07:00:59;;;;;;;8.57;2.83;;;8.70;99.90;;;;;;5096831;28;20118;-86
2022/04/28 07:03:25;;;;;;;8.52;3.17;;;8.80;99.90;;;;;;5097141;28;20103;-85
2022/04/28 07:05:53;;;;;;;5.50;2.50;;;8.80;99.90;;;;;;5097390;28;20022;-87
2022/04/28 07:08:18;;;;;;;4.72;2.40;;;8.90;99.90;;;;;;5114663;28;20027;-87
2022/04/28 07:10:44;;;;;;;8.32;2.50;;;9.00;99.90;;;;;;5096621;28;20023;-89
2022/04/28 07:13:10;;;;;;;5.28;2.33;;;9.00;99.90;;;;;;5096700;28;20393;-84
2022/04/28 07:15:36;;;;;;;7.38;2.58;;;9.00;99.90;;;;;;5096407;28;20028;-88
2022/04/28 07:18:04;;;;;;;4.13;2.25;;;9.10;99.90;;;;;;5114663;28;20027;-85
2022/04/28 07:20:37;;;;;;;7.55;2.42;;;9.20;99.90;;;;;;5114756;28;20031;-86
2022/04/28 07:23:02;;;;;;;3.58;1.90;;;9.20;99.90;;;;;;5097229;28;20059;-85
2022/04/28 07:25:29;;;;;;;5.95;2.53;;;9.20;99.90;;;;;;5097497;28;20027;-86
2022/04/28 07:27:56;;;;;;;6.82;2.92;;;9.20;99.90;;;;;;5098519;28;20023;-87
2022/04/28 07:30:23;;;;;;;5.68;2.28;;;9.30;99.90;;;;;;5118314;28;20384;-85
2022/04/28 07:32:50;;;;;;;7.00;2.92;;;9.30;99.90;;;;;;5120432;28;20031;-85
2022/04/28 07:35:16;;;;;;;7.85;2.20;;;9.40;99.90;;;;;;5100314;28;20072;-87
2022/04/28 07:37:42;;;;;;;7.25;2.50;;;9.40;99.90;;;;;;5100821;28;20058;-86
2022/04/28 07:40:09;;;;;;;5.45;2.35;;;9.40;99.90;;;;;;5097377;28;20032;-85
2022/04/28 07:42:34;;;;;;;7.63;2.83;;;9.50;99.90;;;;;;5098682;28;20040;-88
2022/04/28 07:45:00;;;;;;;10.15;3.10;;;9.50;99.90;;;;;;5097662;28;20028;-85
2022/04/28 07:47:29;;;;;;;6.40;2.13;;;9.60;99.90;;;;;;5115016;28;20492;-86
2022/04/28 07:49:55;;;;;;;11.43;2.80;;;9.70;99.90;;;;;;5096148;28;20366;-86
2022/04/28 07:52:21;;;;;;;5.63;2.08;;;9.70;99.90;;;;;;5114593;28;20026;-86
2022/04/28 07:54:47;;;;;;;6.60;2.80;;;9.80;99.90;;;;;;5096262;28;20020;-86
2022/04/28 07:57:14;;;;;;;9.45;2.88;;;9.90;99.90;;;;;;5096393;28;20026;-86
2022/04/28 07:59:39;;;;;;;5.18;2.53;;;10.00;99.90;;;;;;5100000;28;20034;-88
2022/04/28 08:02:07;;;;;;;8.85;2.90;;;9.90;99.90;;;;;;5117460;28;20366;-87
2022/04/28 08:04:32;;;;;;;6.47;2.67;;;9.90;99.90;;;;;;5096802;28;20416;-87
2022/04/28 08:06:58;;;;;;;5.03;2.47;;;10.00;99.90;;;;;;5096028;28;20026;-85
2022/04/28 08:09:24;;;;;;;5.90;2.38;;;10.00;99.90;;;;;;5096614;28;20107;-85
2022/04/28 08:11:50;;;;;;;7.85;3.20;;;10.00;99.90;;;;;;5096273;28;20481;-87
2022/04/28 08:14:16;;;;;;;7.45;3.38;;;10.10;99.90;;;;;;5096592;28;20027;-85
2022/04/28 08:16:42;;;;;;;5.95;2.50;;;10.10;99.90;;;;;;5096465;28;20054;-86
2022/04/28 08:19:09;;;;;;;8.32;2.58;;;10.20;99.90;;;;;;5096676;28;20020;-84
2022/04/28 08:21:37;;;;;;;7.38;2.72;;;10.20;99.90;;;;;;5098882;28;20092;-85
2022/04/28 08:24:03;;;;;;;5.28;2.08;;;10.20;99.90;;;;;;5118795;28;20027;-86
2022/04/28 08:26:29;;;;;;;5.68;2.38;;;10.30;99.90;;;;;;5099757;28;20186;-84
2022/04/28 08:28:54;;;;;;;5.50;2.22;;;10.30;99.90;;;;;;5099957;28;20024;-85
2022/04/28 08:31:20;;;;;;;7.43;2.42;;;10.40;99.90;;;;;;5117878;28;20420;-85
2022/04/28 08:33:47;;;;;;;5.15;2.30;;;10.50;99.90;;;;;;5100446;28;20035;-84
2022/04/28 08:36:14;;;;;;;6.18;2.50;;;10.70;99.90;;;;;;5100353;28;20488;-86
2022/04/28 08:38:39;;;;;;;7.82;3.25;;;10.70;99.90;;;;;;5102207;28;20123;-86
2022/04/28 08:41:12;;;;;;;7.45;3.10;;;10.70;99.90;;;;;;5100573;28;20058;-85
2022/04/28 08:43:40;;;;;;;8.95;3.42;;;10.70;99.90;;;;;;5101430;28;20027;-86
2022/04/28 08:48:54;;;;;;;5.45;2.33;;;10.90;99.90;;;;;;5110899;28;20078;-85
2022/04/28 08:51:21;;;;;;;6.00;2.97;;;11.00;99.90;;;;;;5096849;28;20020;-85
2022/04/28 08:53:50;;;;;;;6.57;2.95;;;11.10;99.90;;;;;;5099009;28;20024;-85
2022/04/28 08:56:17;;;;;;;10.57;3.90;;;11.20;99.90;;;;;;5100492;28;20015;-84
2022/04/28 08:58:46;;;;;;;6.25;3.30;;;11.20;99.90;;;;;;5101676;28;20019;-85
2022/04/28 09:01:12;;;;;;;8.68;3.40;;;11.30;99.90;;;;;;5107927;28;20035;-84
2022/04/28 09:03:37;;;;;;;4.38;2.33;;;11.30;99.90;;;;;;5112379;28;20024;-85
2022/04/28 09:06:29;;;;;;;7.10;2.67;;;11.40;99.90;;;;;;5106499;28;20020;-86
2022/04/28 09:08:57;;;;;;;5.97;2.65;;;11.50;99.90;;;;;;5098690;28;20050;-85
2022/04/28 09:11:27;;;;;;;6.75;3.35;;;11.70;99.90;;;;;;5115352;28;20051;-86
2022/04/28 09:14:15;;;;;;;7.07;2.90;;;11.70;99.90;;;;;;5114981;28;20062;-84
2022/04/28 09:16:56;;;;;;;7.55;2.97;;;11.80;99.90;;;;;;5113284;28;20024;-85
2022/04/28 09:19:38;;;;;;;8.80;3.35;;;12.00;99.90;;;;;;5097463;28;20020;-86
2022/04/28 09:22:09;;;;;;;9.63;3.65;;;12.00;99.90;;;;;;5100204;28;20032;-86
2022/04/28 09:24:39;;;;;;;8.30;3.47;;;12.00;99.90;;;;;;5098331;28;20004;-84
2022/04/28 09:27:04;;;;;;;5.90;2.83;;;12.10;99.90;;;;;;5114389;28;20023;-84
2022/04/28 09:29:39;;;;;;;8.88;3.80;;;12.10;99.90;;;;;;5121755;28;20027;-84
2022/04/28 09:32:15;;;;;;;8.88;3.30;;;12.30;99.90;;;;;;5098525;28;20038;-85
2022/04/28 09:34:49;;;;;;;7.75;4.10;;;12.60;99.90;;;;;;5103189;28;20072;-86
2022/04/28 09:37:18;;;;;;;6.38;3.00;;;13.60;99.90;;;;;;5099803;28;20099;-85
2022/04/28 09:42:39;;;;;;;5.63;2.65;;;16.30;99.70;;;;;;5130622;28;20062;-87
2022/04/28 09:45:05;;;;;;;5.97;2.67;;;17.60;98.30;;;;;;5113995;28;20030;-87
2022/04/28 09:47:32;;;;;;;5.68;2.22;;;18.40;97.50;;;;;;5104206;28;20024;-85
2022/04/28 09:49:58;;;;;;;5.60;2.33;;;19.20;97.00;;;;;;5118093;28;20043;-84
2022/04/28 09:52:23;;;;;;;6.43;2.00;;;20.00;95.70;;;;;;5113877;28;20023;-87
2022/04/28 09:54:51;;;;;;;6.88;2.60;;;20.40;94.40;;;;;;5116096;28;20024;-85
2022/04/28 09:57:18;;;;;;;7.50;2.30;;;20.70;93.40;;;;;;5101622;28;20016;-87
2022/04/28 09:59:45;;;;;;;5.35;1.83;;;21.00;92.50;;;;;;5112750;28;20023;-89
2022/04/28 10:02:15;;;;;;;4.43;1.77;;;21.40;92.30;;;;;;5106850;28;20103;-88
2022/04/28 10:04:42;;;;;;;7.13;2.20;;;21.70;91.40;;;;;;5082920;28;20025;-86
2022/04/28 10:07:09;;;;;;;6.63;2.00;;;22.00;90.50;;;;;;5094838;28;20057;-85
2022/04/28 10:09:38;;;;;;;5.82;2.20;;;22.30;89.10;;;;;;5103803;28;20048;-87
2022/04/28 10:12:06;;;;;;;4.57;1.75;;;22.60;88.40;;;;;;5102244;28;20454;-88
2022/04/28 10:14:34;;;;;;;5.22;1.98;;;22.90;87.50;;;;;;5091030;28;20103;-86
2022/04/28 10:17:03;;;;;;;4.22;2.25;;;23.40;86.40;;;;;;5082919;28;20118;-87
2022/04/28 10:19:35;;;;;;;6.68;1.90;;;23.70;85.00;;;;;;5096975;28;20024;-86
2022/04/28 10:22:08;;;;;;;7.00;3.03;;;24.10;83.70;;;;;;5077228;28;20553;-85
2022/04/28 10:33:02;;;;;;;6.10;2.15;;;23.20;77.60;;;;;;5107539;28;20089;-86
2022/04/28 10:35:37;;;;;;;5.38;2.63;;;23.50;76.70;;;;;;5091856;28;20024;-87
2022/04/28 10:38:11;;;;;;;6.57;2.05;;;23.60;74.90;;;;;;5095330;28;20028;-87
2022/04/28 10:41:01;;;;;;;5.88;2.25;;;23.80;75.20;;;;;;5082982;28;20489;-86
2022/04/28 10:43:33;;;;;;;4.50;1.88;;;24.20;74.50;;;;;;5088615;28;20781;-87
2022/04/28 10:46:22;;;;;;;4.60;2.17;;;24.60;74.00;;;;;;5094529;28;20481;-87
2022/04/28 10:48:52;;;;;;;6.15;2.45;;;24.70;72.40;;;;;;5076393;28;20060;-87
2022/04/28 10:51:19;;;;;;;5.53;2.42;;;24.80;72.30;;;;;;5106935;28;20389;-85
2022/04/28 10:54:09;;;;;;;6.10;2.30;;;25.00;72.10;;;;;;5079904;28;20024;-87
2022/04/28 10:56:44;;;;;;;7.10;2.28;;;25.10;70.30;;;;;;5100513;28;20023;-87
2022/04/28 10:59:40;;;;;;;4.70;1.75;;;25.00;69.70;;;;;;5103189;28;20028;-86
2022/04/28 11:02:11;;;;;;;5.68;1.88;;;25.10;70.10;;;;;;5091270;28;20046;-87
2022/04/28 11:04:39;;;;;;;5.32;1.95;;;25.20;69.30;;;;;;5082671;28;20031;-87
2022/04/28 11:07:28;;;;;;;5.65;2.08;;;25.40;68.80;;;;;;5085604;28;20486;-86
2022/04/28 11:09:57;;;;;;;3.67;1.60;;;25.70;69.40;;;;;;5108072;28;20104;-87
2022/04/28 11:12:25;;;;;;;5.25;1.70;;;25.90;69.00;;;;;;5098305;28;20024;-87
2022/04/28 11:15:03;;;;;;;5.53;2.20;;;26.10;68.00;;;;;;5060169;28;20048;-88
2022/04/28 11:17:31;;;;;;;5.13;2.05;;;26.30;66.70;;;;;;5075933;28;20038;-89
2022/04/28 11:20:04;;;;;;;5.30;2.20;;;26.00;66.20;;;;;;5075760;28;20047;-88
2022/04/28 11:22:30;;;;;;;4.20;1.90;;;26.00;66.10;;;;;;5078664;28;20099;-87
2022/04/28 11:24:56;;;;;;;4.60;2.13;;;26.20;66.30;;;;;;5087108;28;20519;-88
2022/04/28 11:27:24;;;;;;;5.00;2.08;;;26.40;65.60;;;;;;5074600;28;20073;-86
2022/04/28 11:29:55;;;;;;;4.03;1.80;;;26.50;65.50;;;;;;5075703;28;20111;-88
2022/04/28 11:32:21;;;;;;;5.90;2.03;;;26.70;65.40;;;;;;5094238;28;20115;-87
2022/04/28 11:34:48;;;;;;;5.30;2.05;;;26.80;64.60;;;;;;5076403;28;20052;-88
2022/04/28 11:37:15;;;;;;;7.18;2.30;;;26.90;64.10;;;;;;5076150;28;20017;-86
2022/04/28 11:39:45;;;;;;;5.65;1.63;;;26.90;63.00;;;;;;5080364;28;20013;-88
2022/04/28 11:42:18;;;;;;;4.18;2.08;;;26.70;62.70;;;;;;5072514;28;20063;-88
2022/04/28 11:44:59;;;;;;;5.28;2.17;;;26.60;63.20;;;;;;5075309;28;20020;-86
2022/04/28 11:47:26;;;;;;;5.07;1.75;;;26.90;63.00;;;;;;5076271;28;20091;-84
2022/04/28 11:50:01;;;;;;;5.80;2.40;;;27.00;62.60;;;;;;5067486;28;20069;-85
2022/04/28 11:52:31;;;;;;;5.60;2.05;;;27.00;62.20;;;;;;5074022;28;20027;-83
2022/04/28 11:55:08;;;;;;;3.75;1.70;;;26.70;61.50;;;;;;5069978;28;20020;-84
2022/04/28 11:57:37;;;;;;;4.07;1.80;;;26.70;62.60;;;;;;5082187;28;20028;-86
2022/04/28 12:00:05;;;;;;;8.48;2.00;;;26.90;63.60;;;;;;5090552;28;20498;-84
2022/04/28 12:02:34;;;;;;;4.75;1.75;;;27.20;62.30;;;;;;5087997;28;20043;-87
2022/04/28 12:05:02;;;;;;;5.00;2.30;;;27.20;62.20;;;;;;5057372;28;20390;-86
2022/04/28 12:07:31;;;;;;;5.55;2.13;;;27.10;61.10;;;;;;5086289;28;20074;-83
2022/04/28 12:15:27;;;;;;;3.90;1.98;;;27.10;60.50;;;;;;5088883;28;20393;-85
2022/04/28 12:20:58;;;;;;;4.82;2.10;;;27.00;60.40;;;;;;5090597;28;20031;-86
2022/04/28 12:23:31;;;;;;;4.65;2.00;;;27.30;60.90;;;;;;5063655;28;20115;-83
2022/04/28 12:26:02;;;;;;;3.95;1.98;;;27.50;60.60;;;;;;5065223;28;20432;-86
2022/04/28 12:28:39;;;;;;;6.32;2.55;;;27.70;60.60;;;;;;5104487;28;20020;-85
2022/04/28 12:31:07;;;;;;;4.53;1.90;;;27.90;60.00;;;;;;5102596;28;20028;-85
2022/04/28 12:33:34;;;;;;;6.00;2.55;;;28.00;59.30;;;;;;5078329;28;20189;-85
2022/04/28 12:36:02;;;;;;;5.13;1.80;;;28.00;59.00;;;;;;5078195;28;20029;-85
2022/04/28 12:38:29;;;;;;;4.55;2.10;;;28.00;58.90;;;;;;5093267;28;20462;-85
2022/04/28 12:40:55;;;;;;;4.38;2.13;;;27.90;58.80;;;;;;5078297;28;20389;-85
2022/04/28 12:43:37;;;;;;;4.55;1.70;;;27.90;59.10;;;;;;5085510;28;20108;-84
2022/04/28 12:46:05;;;;;;;4.07;2.08;;;28.20;59.40;;;;;;5079931;28;20105;-85
2022/04/28 12:48:35;;;;;;;5.97;2.40;;;28.40;58.80;;;;;;5079038;28;20026;-86
2022/04/28 12:51:14;;;;;;;5.22;1.90;;;28.60;59.40;;;;;;5087563;28;20023;-84
2022/04/28 12:53:42;;;;;;;4.25;1.90;;;28.30;58.40;;;;;;5091858;28;20115;-85
2022/04/28 12:56:10;;;;;;;6.68;2.10;;;27.90;58.60;;;;;;5076154;28;20027;-85
2022/04/28 12:58:41;;;;;;;4.53;1.70;;;27.80;58.80;;;;;;5059046;28;20099;-85
2022/04/28 13:01:18;;;;;;;6.18;1.58;;;28.10;58.60;;;;;;5069399;28;20020;-85
2022/04/28 13:04:04;;;;;;;4.95;1.35;;;28.30;59.30;;;;;;5078138;28;20024;-85
2022/04/28 13:06:32;;;;;;;3.50;1.83;;;28.40;59.20;;;;;;5081250;28;20036;-86
2022/04/28 13:09:00;;;;;;;3.42;1.40;;;28.40;59.10;;;;;;5086233;28;20056;-85
2022/04/28 13:11:32;;;;;;;4.38;1.80;;;28.40;58.60;;;;;;5070990;28;20020;-85
2022/04/28 13:13:59;;;;;;;5.88;1.98;;;28.60;58.60;;;;;;5076176;28;20094;-87
2022/04/28 13:16:25;;;;;;;3.67;1.90;;;28.60;57.80;;;;;;5061594;28;20019;-85
2022/04/28 13:18:51;;;;;;;4.45;1.70;;;28.50;58.20;;;;;;5085370;28;20078;-86
2022/04/28 13:21:17;;;;;;;3.67;1.60;;;28.70;58.70;;;;;;5075864;28;20032;-86
2022/04/28 13:23:44;;;;;;;2.42;1.50;;;29.00;58.40;;;;;;5072590;28;20349;-86
2022/04/28 13:26:12;;;;;;;5.38;2.00;;;29.20;58.10;;;;;;5091467;28;20024;-85
2022/04/28 13:28:39;;;;;;;4.80;1.80;;;29.20;57.80;;;;;;5063628;28;20012;-86
2022/04/28 13:31:06;;;;;;;3.92;1.55;;;29.00;58.70;;;;;;5079016;28;20115;-88
2022/04/28 13:33:33;;;;;;;3.10;1.60;;;28.60;57.60;;;;;;5098360;28;20103;-86
2022/04/28 13:36:00;;;;;;;3.90;1.85;;;28.60;57.80;;;;;;5075285;28;20536;-85
2022/04/28 13:38:26;;;;;;;3.47;1.65;;;28.60;58.10;;;;;;5085592;28;20491;-84